Time;durP1;ratioP1;P1;durP2;ratioP2;P2;SDS_P1;SDS_P2;PMS_P1;PMS_P2;Temp;Humidity;BMP_temperature;BMP_pressure;BME280_temperature;BME280_humidity;BME280_pressure;Samples;Min_cycle;Max_cycle;Signal;HPM_P1;HPM_P2
2023/04/19 00:01:08;;;;;;;15.65;12.52;;;;;;;11.07;65.13;102553.84;5021138;28;20021;-90
2023/04/19 00:03:33;;;;;;;17.30;13.82;;;;;;;11.09;65.34;102548.53;5020915;28;20063;-89
2023/04/19 00:05:58;;;;;;;17.52;12.77;;;;;;;11.17;65.01;102551.94;5004879;28;20056;-90
2023/04/19 00:08:25;;;;;;;18.05;13.98;;;;;;;11.18;65.34;102551.03;5007695;28;20420;-90
2023/04/19 00:10:50;;;;;;;19.40;14.13;;;;;;;11.19;64.38;102555.44;5030692;28;20033;-90
2023/04/19 00:13:15;;;;;;;18.15;13.77;;;;;;;11.14;64.67;102542.25;5009155;28;20029;-90
2023/04/19 00:15:41;;;;;;;19.38;13.40;;;;;;;11.19;64.77;102548.38;5000730;28;20104;-90
2023/04/19 00:18:06;;;;;;;18.70;13.40;;;;;;;11.13;64.43;102527.28;5008077;28;20037;-90
2023/04/19 00:20:31;;;;;;;19.77;14.18;;;;;;;11.23;64.71;102546.53;5007489;28;20500;-90
2023/04/19 00:22:58;;;;;;;20.80;13.77;;;;;;;11.23;64.77;102539.47;5024665;28;20026;-89
2023/04/19 00:25:23;;;;;;;18.30;13.10;;;;;;;11.21;65.15;102530.69;5029219;28;20018;-90
2023/04/19 00:27:48;;;;;;;18.33;12.80;;;;;;;11.24;65.23;102535.94;5008816;28;20044;-90
2023/04/19 00:30:14;;;;;;;18.23;13.35;;;;;;;11.23;65.23;102534.19;5009216;28;20048;-90
2023/04/19 00:32:39;;;;;;;19.92;13.95;;;;;;;11.29;64.85;102538.53;5024959;28;20305;-90
2023/04/19 00:35:05;;;;;;;16.63;13.15;;;;;;;11.29;64.17;102548.25;5021281;28;20021;-90
2023/04/19 00:37:30;;;;;;;19.90;14.18;;;;;;;11.32;64.26;102546.41;5023940;28;20083;-90
2023/04/19 00:39:55;;;;;;;18.40;14.00;;;;;;;11.41;65.03;102542.75;5024714;28;20567;-90
2023/04/19 00:42:21;;;;;;;17.65;12.85;;;;;;;11.41;64.54;102545.38;5011898;28;20036;-90
2023/04/19 00:44:46;;;;;;;18.08;13.35;;;;;;;11.29;64.43;102533.22;5017702;28;20108;-90
2023/04/19 00:47:13;;;;;;;18.15;12.60;;;;;;;11.30;65.14;102534.09;5025955;28;20107;-90
2023/04/19 00:49:39;;;;;;;17.98;13.35;;;;;;;11.33;64.92;102528.75;5009427;28;20029;-90
2023/04/19 00:52:05;;;;;;;17.50;13.23;;;;;;;11.32;65.17;102530.50;5031266;28;20495;-90
2023/04/19 00:54:31;;;;;;;18.52;13.43;;;;;;;11.31;65.32;102534.06;5021587;28;20298;-90
2023/04/19 00:56:57;;;;;;;18.30;12.50;;;;;;;11.36;65.75;102541.94;5008847;28;20482;-91
2023/04/19 00:59:23;;;;;;;19.42;14.07;;;;;;;11.36;65.23;102540.16;5000391;28;20046;-90
2023/04/19 01:01:49;;;;;;;17.08;12.93;;;;;;;11.32;65.61;102537.59;5023773;28;20072;-90
2023/04/19 01:04:14;;;;;;;17.15;12.55;;;;;;;11.36;65.30;102539.28;5024793;28;20026;-90
2023/04/19 01:06:40;;;;;;;19.65;13.32;;;;;;;11.22;65.14;102516.56;5025197;28;20057;-90
2023/04/19 01:09:06;;;;;;;18.75;13.02;;;;;;;11.34;65.72;102538.47;5023844;28;20065;-90
2023/04/19 01:11:31;;;;;;;21.02;13.88;;;;;;;11.33;65.74;102537.59;5002478;28;20068;-90
2023/04/19 01:13:57;;;;;;;19.95;13.30;;;;;;;11.38;65.80;102535.72;5007423;28;20400;-89
2023/04/19 01:16:25;;;;;;;18.90;12.65;;;;;;;11.31;65.71;102535.84;5007781;28;20049;-89
2023/04/19 01:18:50;;;;;;;20.25;12.73;;;;;;;11.23;66.43;102530.66;5010287;28;20116;-89
2023/04/19 01:21:16;;;;;;;18.33;12.05;;;;;;;11.05;66.55;102510.66;5007942;28;20113;-91
2023/04/19 01:23:41;;;;;;;17.55;12.40;;;;;;;11.27;66.22;102527.06;5009082;28;20057;-90
2023/04/19 01:26:07;;;;;;;20.63;14.05;;;;;;;11.20;65.99;102528.97;5021375;28;20076;-90
2023/04/19 01:28:32;;;;;;;20.65;13.93;;;;;;;11.18;66.26;102543.97;5020631;28;20033;-90
2023/04/19 01:30:58;;;;;;;19.30;14.05;;;;;;;11.19;66.50;102531.59;5001913;28;20036;-90
2023/04/19 01:33:23;;;;;;;22.95;13.43;;;;;;;11.35;66.15;102538.41;5020824;28;20116;-89
2023/04/19 01:35:49;;;;;;;20.02;13.20;;;;;;;11.38;66.24;102535.72;5007239;28;20051;-90
2023/04/19 01:38:17;;;;;;;18.45;12.95;;;;;;;11.32;65.88;102525.22;5024615;28;20237;-90
2023/04/19 01:40:43;;;;;;;20.30;13.10;;;;;;;11.30;66.41;102532.31;5004294;28;20584;-90
2023/04/19 01:43:12;;;;;;;20.25;13.32;;;;;;;11.32;66.84;102542.88;5026445;28;20108;-90
2023/04/19 01:45:37;;;;;;;18.02;11.95;;;;;;;11.31;66.45;102525.25;5021836;28;20040;-90
2023/04/19 01:48:03;;;;;;;20.30;12.98;;;;;;;11.25;66.77;102518.28;5016720;28;20021;-90
2023/04/19 01:50:29;;;;;;;18.55;12.90;;;;;;;11.24;66.60;102512.13;5024128;28;20404;-90
2023/04/19 01:52:55;;;;;;;18.90;12.85;;;;;;;11.32;67.09;102522.56;5010418;28;20103;-90
2023/04/19 01:55:20;;;;;;;17.83;12.38;;;;;;;11.36;66.77;102516.34;5030196;28;20071;-91
2023/04/19 01:57:45;;;;;;;19.30;13.05;;;;;;;11.37;66.76;102522.50;5007970;28;20061;-90
2023/04/19 02:00:11;;;;;;;19.02;12.85;;;;;;;11.36;67.01;102516.34;5007653;28;20507;-90
2023/04/19 02:02:37;;;;;;;18.92;13.07;;;;;;;11.44;66.90;102524.16;5022149;28;20032;-90
2023/04/19 02:05:04;;;;;;;19.30;13.05;;;;;;;11.49;67.19;102514.34;5007355;28;20029;-90
2023/04/19 02:07:29;;;;;;;22.00;12.95;;;;;;;11.51;66.94;102512.53;5028152;28;20075;-90
2023/04/19 02:09:55;;;;;;;19.77;14.00;;;;;;;11.60;66.63;102514.16;5025802;28;20057;-90
2023/04/19 02:12:20;;;;;;;21.58;13.57;;;;;;;11.62;66.83;102515.03;5023354;28;20061;-90
2023/04/19 02:14:45;;;;;;;21.60;13.30;;;;;;;11.57;67.02;102515.09;5011578;28;20078;-89
2023/04/19 02:17:11;;;;;;;20.38;14.18;;;;;;;11.54;66.87;102504.56;5027281;28;20513;-90
2023/04/19 02:19:36;;;;;;;19.35;13.85;;;;;;;11.33;67.48;102505.81;5006889;28;20120;-90
2023/04/19 02:22:02;;;;;;;21.55;13.63;;;;;;;11.30;68.15;102503.19;5028497;28;20110;-91
2023/04/19 02:24:27;;;;;;;20.52;14.02;;;;;;;11.31;68.09;102501.44;5027591;28;20504;-90
2023/04/19 02:26:52;;;;;;;19.83;13.63;;;;;;;11.34;68.21;102507.56;5022356;28;20037;-90
2023/04/19 02:29:17;;;;;;;18.45;14.05;;;;;;;11.32;68.22;102503.16;5022030;28;20083;-90
2023/04/19 02:31:45;;;;;;;22.70;13.82;;;;;;;11.35;68.63;102513.72;5005845;28;20588;-91
2023/04/19 02:34:10;;;;;;;20.13;13.30;;;;;;;11.28;68.50;102504.97;5008528;28;20030;-90
2023/04/19 02:36:35;;;;;;;19.30;14.35;;;;;;;11.27;68.51;102499.72;5027376;28;20030;-90
2023/04/19 02:39:01;;;;;;;20.58;14.10;;;;;;;11.42;68.44;102510.94;5006422;28;20053;-90
2023/04/19 02:41:26;;;;;;;21.55;13.15;;;;;;;11.39;68.62;102502.19;5034510;28;20071;-90
2023/04/19 02:43:51;;;;;;;17.70;12.32;;;;;;;11.40;68.23;102496.84;5014042;28;20025;-89
2023/04/19 02:46:17;;;;;;;19.33;13.43;;;;;;;11.41;68.26;102498.59;5027520;28;20033;-90
2023/04/19 02:48:42;;;;;;;18.42;12.85;;;;;;;11.46;68.56;102511.75;5014160;28;20611;-90
2023/04/19 02:51:07;;;;;;;19.50;12.88;;;;;;;11.41;68.12;102497.72;5015091;28;20029;-90
2023/04/19 02:53:33;;;;;;;17.02;12.23;;;;;;;11.47;68.61;102516.13;5004617;28;20048;-90
2023/04/19 02:55:58;;;;;;;18.95;13.35;;;;;;;11.40;68.62;102506.56;5026505;28;20049;-90
2023/04/19 02:58:23;;;;;;;19.60;13.00;;;;;;;11.42;68.70;102524.19;5029793;28;20039;-90
2023/04/19 03:00:49;;;;;;;20.20;14.02;;;;;;;11.29;69.26;102505.88;5027881;28;20104;-90
2023/04/19 03:03:14;;;;;;;19.77;12.32;;;;;;;11.22;69.06;102499.81;5021351;28;20107;-91
2023/04/19 03:05:40;;;;;;;17.90;12.13;;;;;;;11.23;69.07;102513.00;5012479;28;20026;-90
2023/04/19 03:08:05;;;;;;;22.27;12.77;;;;;;;11.18;69.16;102506.91;5013743;28;20095;-90
2023/04/19 03:10:30;;;;;;;16.58;11.98;;;;;;;11.16;69.32;102510.50;5028778;28;20033;-90
2023/04/19 03:12:55;;;;;;;18.02;12.43;;;;;;;11.17;69.83;102507.81;5006584;28;20456;-90
2023/04/19 03:15:21;;;;;;;16.13;11.93;;;;;;;11.19;70.06;102511.31;5028127;28;20041;-90
2023/04/19 03:17:47;;;;;;;16.88;11.82;;;;;;;11.17;70.07;102501.66;5027906;28;20440;-90
2023/04/19 03:20:12;;;;;;;17.58;13.20;;;;;;;11.12;69.73;102496.44;5014167;28;20374;-90
2023/04/19 03:22:38;;;;;;;17.55;12.45;;;;;;;11.17;69.96;102505.16;5007001;28;20033;-91
2023/04/19 03:25:04;;;;;;;16.13;11.10;;;;;;;11.29;69.05;102497.94;5025148;28;20040;-90
2023/04/19 03:27:29;;;;;;;18.80;12.63;;;;;;;11.35;69.03;102498.69;5009492;28;20525;-90
2023/04/19 03:29:55;;;;;;;17.17;11.75;;;;;;;11.41;68.73;102493.28;5020126;28;20430;-90
2023/04/19 03:32:21;;;;;;;15.73;11.77;;;;;;;11.41;68.54;102503.88;5002236;28;20026;-91
2023/04/19 03:34:46;;;;;;;18.17;12.15;;;;;;;11.41;68.80;102500.38;5021874;28;20025;-90
2023/04/19 03:37:11;;;;;;;17.38;11.60;;;;;;;11.40;68.32;102491.56;5000441;28;20033;-90
2023/04/19 03:39:37;;;;;;;16.33;11.70;;;;;;;11.46;68.76;102495.84;5022805;28;20297;-91
2023/04/19 03:42:02;;;;;;;17.88;11.73;;;;;;;11.34;68.49;102489.00;5002496;28;20034;-90
2023/04/19 03:44:30;;;;;;;16.30;12.02;;;;;;;11.39;68.62;102489.81;5003350;28;20108;-90
2023/04/19 03:46:56;;;;;;;18.50;11.48;;;;;;;11.39;68.28;102497.75;5001807;28;20128;-90
2023/04/19 03:49:21;;;;;;;16.83;11.27;;;;;;;11.32;68.33;102495.22;5011071;28;20496;-90
2023/04/19 03:51:46;;;;;;;16.02;11.18;;;;;;;11.31;68.44;102494.34;5026636;28;20036;-90
2023/04/19 03:54:11;;;;;;;15.25;11.73;;;;;;;11.05;69.85;102493.88;5026114;28;20491;-90
2023/04/19 03:56:37;;;;;;;18.52;12.25;;;;;;;11.01;70.10;102498.38;5020835;28;20076;-91
2023/04/19 03:59:02;;;;;;;14.18;10.57;;;;;;;11.10;70.25;102507.97;5006311;28;20022;-90
2023/04/19 04:01:27;;;;;;;16.13;11.45;;;;;;;10.98;69.96;102483.41;5019087;28;20029;-90
2023/04/19 04:03:52;;;;;;;16.98;10.98;;;;;;;11.08;69.97;102504.44;5029173;28;20431;-90
2023/04/19 04:06:18;;;;;;;17.00;11.20;;;;;;;11.02;70.21;102502.78;5006072;28;20022;-90
2023/04/19 04:08:43;;;;;;;16.27;11.80;;;;;;;11.03;69.86;102498.34;5026265;28;20033;-89
2023/04/19 04:11:08;;;;;;;16.25;11.27;;;;;;;10.97;69.79;102501.97;5027070;28;20047;-90
2023/04/19 04:13:34;;;;;;;16.30;11.30;;;;;;;10.95;69.98;102495.81;5000470;28;20384;-90
2023/04/19 04:15:59;;;;;;;15.25;11.02;;;;;;;10.87;69.76;102488.00;5016800;28;20133;-90
2023/04/19 04:18:25;;;;;;;16.38;11.45;;;;;;;10.91;69.76;102507.34;5027269;28;20043;-90
2023/04/19 04:20:51;;;;;;;15.63;11.18;;;;;;;10.89;69.93;102503.84;5025459;28;20026;-90
2023/04/19 04:23:16;;;;;;;13.68;10.13;;;;;;;10.77;69.84;102499.63;5008434;28;20024;-90
2023/04/19 04:25:41;;;;;;;13.73;9.82;;;;;;;10.72;69.78;102493.50;5027044;28;20083;-90
2023/04/19 04:28:07;;;;;;;16.25;10.63;;;;;;;10.80;69.73;102486.34;5019027;28;20112;-90
2023/04/19 04:30:33;;;;;;;16.15;10.43;;;;;;;10.78;69.85;102505.78;5007205;28;20056;-90
2023/04/19 04:32:58;;;;;;;16.08;10.35;;;;;;;10.62;69.85;102503.34;5021887;28;20025;-90
2023/04/19 04:35:24;;;;;;;18.25;11.00;;;;;;;10.48;69.97;102485.00;5014389;28;20028;-90
2023/04/19 04:37:52;;;;;;;14.52;10.13;;;;;;;10.62;69.78;102507.75;5006743;28;20381;-90
2023/04/19 04:40:18;;;;;;;15.32;9.95;;;;;;;10.60;70.40;102512.19;5020044;28;20460;-90
2023/04/19 04:42:44;;;;;;;13.02;10.15;;;;;;;10.52;70.33;102501.72;5018539;28;20101;-90
2023/04/19 04:45:10;;;;;;;14.07;9.32;;;;;;;10.58;69.99;102522.78;5008286;28;20030;-90
2023/04/19 04:47:36;;;;;;;12.77;9.27;;;;;;;10.51;69.82;102507.91;5020340;28;20469;-90
2023/04/19 04:50:02;;;;;;;13.77;9.93;;;;;;;10.41;69.57;102509.78;5025177;28;20036;-90
2023/04/19 04:52:27;;;;;;;12.55;8.88;;;;;;;10.42;69.54;102530.03;5004499;28;20037;-90
2023/04/19 04:54:53;;;;;;;14.60;9.20;;;;;;;10.27;69.48;102518.78;5020631;28;20072;-90
2023/04/19 04:57:18;;;;;;;12.35;8.60;;;;;;;10.19;69.73;102510.91;5022780;28;20177;-90
2023/04/19 04:59:45;;;;;;;13.00;8.10;;;;;;;10.13;69.70;102522.44;5006176;28;20029;-90
2023/04/19 05:02:10;;;;;;;12.93;8.80;;;;;;;10.03;69.68;102518.16;5008513;28;20104;-90
2023/04/19 05:04:35;;;;;;;10.35;7.53;;;;;;;10.02;70.09;102524.31;5007051;28;20117;-90
2023/04/19 05:07:01;;;;;;;12.13;8.10;;;;;;;10.06;69.75;102528.66;5024727;28;20072;-90
2023/04/19 05:09:26;;;;;;;10.80;7.60;;;;;;;10.02;69.96;102511.09;5001616;28;20132;-91
2023/04/19 05:11:51;;;;;;;10.93;7.93;;;;;;;10.03;69.73;102520.78;5025300;28;20026;-90
2023/04/19 05:14:17;;;;;;;11.70;8.18;;;;;;;10.06;69.42;102533.94;5024259;28;20079;-91
2023/04/19 05:16:42;;;;;;;14.35;7.80;;;;;;;9.89;69.81;102509.50;5027547;28;20057;-90
2023/04/19 05:19:07;;;;;;;13.88;8.07;;;;;;;9.86;69.54;102504.25;5001515;28;20053;-90
2023/04/19 05:21:33;;;;;;;12.00;7.90;;;;;;;9.92;69.77;102522.66;5008780;28;20026;-90
2023/04/19 05:23:58;;;;;;;14.65;8.52;;;;;;;9.99;69.96;102532.28;5005582;28;20033;-90
2023/04/19 05:26:24;;;;;;;9.77;7.60;;;;;;;10.05;69.93;102529.56;5008897;28;20025;-90
2023/04/19 05:28:49;;;;;;;13.15;8.57;;;;;;;10.09;69.80;102535.69;5024858;28;20037;-90
2023/04/19 05:31:14;;;;;;;13.20;8.45;;;;;;;10.11;69.77;102528.63;5022807;28;20389;-89
2023/04/19 05:33:40;;;;;;;13.07;8.50;;;;;;;10.20;69.90;102539.09;5026721;28;20112;-90
2023/04/19 05:36:06;;;;;;;10.27;7.80;;;;;;;10.10;69.56;102526.88;5024715;28;20029;-89
2023/04/19 05:38:31;;;;;;;13.15;8.32;;;;;;;10.04;70.45;102526.94;5024578;28;20029;-90
2023/04/19 05:40:56;;;;;;;14.60;9.38;;;;;;;10.07;69.76;102532.19;5024550;28;20029;-90
2023/04/19 05:43:22;;;;;;;11.73;8.30;;;;;;;10.04;69.35;102530.47;5011274;28;20094;-90
2023/04/19 05:45:48;;;;;;;12.93;8.93;;;;;;;10.03;69.71;102534.00;5016780;28;20429;-90
2023/04/19 05:48:13;;;;;;;10.05;7.85;;;;;;;10.04;69.28;102527.81;5009953;28;20025;-90
2023/04/19 05:50:38;;;;;;;12.70;8.27;;;;;;;10.15;69.67;102532.97;5030237;28;20037;-90
2023/04/19 05:53:04;;;;;;;12.05;8.32;;;;;;;10.13;69.43;102516.28;5003319;28;20735;-90
2023/04/19 05:55:29;;;;;;;11.75;7.97;;;;;;;10.25;69.30;102529.38;5023330;28;20040;-90
2023/04/19 05:57:55;;;;;;;13.70;8.50;;;;;;;10.25;68.10;102517.91;5009895;28;20028;-90
2023/04/19 06:00:20;;;;;;;11.27;7.35;;;;;;;10.35;68.15;102532.78;5023266;28;20488;-90
2023/04/19 06:02:45;;;;;;;10.70;7.55;;;;;;;10.37;68.03;102529.22;5027646;28;20028;-91
2023/04/19 06:05:11;;;;;;;11.95;8.18;;;;;;;10.51;68.00;102541.41;5027611;28;20033;-90
2023/04/19 06:07:36;;;;;;;10.63;7.60;;;;;;;10.47;66.43;102520.28;5025085;28;20079;-90
2023/04/19 06:10:02;;;;;;;12.40;7.55;;;;;;;10.63;66.85;102538.59;5024867;28;20025;-90
2023/04/19 06:12:27;;;;;;;11.32;7.40;;;;;;;10.64;65.01;102530.66;5011165;28;20030;-90
2023/04/19 06:14:53;;;;;;;10.43;7.18;;;;;;;10.70;65.81;102517.34;5029110;28;20029;-89
2023/04/19 06:17:23;;;;;;;9.38;6.80;;;;;;;10.83;64.61;102530.41;5007268;28;20160;-90
2023/04/19 06:19:50;;;;;;;9.75;6.68;;;;;;;10.99;63.16;102538.06;5022242;28;20291;-89
2023/04/19 06:22:15;;;;;;;12.38;6.90;;;;;;;10.97;61.91;102529.31;5008139;28;20492;-90
2023/04/19 06:24:40;;;;;;;9.35;6.75;;;;;;;11.11;62.14;102534.38;5011188;28;20032;-89
2023/04/19 06:27:06;;;;;;;11.93;6.45;;;;;;;11.12;60.56;102529.97;5008213;28;20381;-89
2023/04/19 06:29:31;;;;;;;10.90;6.80;;;;;;;11.01;58.83;102519.56;5009740;28;20025;-89
2023/04/19 06:31:56;;;;;;;11.15;6.70;;;;;;;11.06;59.56;102530.06;5024509;28;20053;-89
2023/04/19 06:34:21;;;;;;;10.43;6.43;;;;;;;11.21;59.32;102533.34;5025201;28;20083;-89
2023/04/19 06:36:47;;;;;;;10.82;6.65;;;;;;;11.24;58.37;102529.78;5026452;28;20047;-89
2023/04/19 06:39:13;;;;;;;8.25;6.97;;;;;;;11.36;58.22;102537.50;5005114;28;20017;-91
2023/04/19 06:41:39;;;;;;;10.10;6.40;;;;;;;11.49;57.90;102540.84;5018199;28;20503;-92
2023/04/19 06:44:04;;;;;;;9.65;6.70;;;;;;;11.49;58.11;102523.19;5027006;28;20037;-91
2023/04/19 06:46:30;;;;;;;10.35;7.28;;;;;;;11.55;57.71;102524.84;5005067;28;20033;-91
2023/04/19 06:48:55;;;;;;;9.90;6.22;;;;;;;11.68;58.83;102531.69;5006564;28;20037;-90
2023/04/19 06:51:20;;;;;;;10.15;6.35;;;;;;;11.69;56.58;102532.53;5006096;28;20033;-91
2023/04/19 06:53:46;;;;;;;10.00;6.85;;;;;;;11.69;56.35;102529.91;5010313;28;20037;-90
2023/04/19 06:56:12;;;;;;;9.02;6.30;;;;;;;11.61;57.03;102521.19;5009666;28;20042;-89
2023/04/19 06:58:37;;;;;;;9.75;6.15;;;;;;;11.64;56.17;102532.63;5026356;28;20394;-90
2023/04/19 07:01:03;;;;;;;8.38;6.18;;;;;;;11.58;54.67;102518.63;5029492;28;20044;-89
2023/04/19 07:03:29;;;;;;;9.57;6.72;;;;;;;11.67;56.38;102526.41;5025053;28;20048;-90
2023/04/19 07:05:57;;;;;;;9.15;6.57;;;;;;;11.74;55.25;102528.91;5012964;28;20029;-90
2023/04/19 07:08:23;;;;;;;12.27;6.72;;;;;;;11.97;55.16;102536.47;5005135;28;20051;-90
2023/04/19 07:10:49;;;;;;;12.23;6.32;;;;;;;11.97;53.84;102525.88;5025546;28;20041;-90
2023/04/19 07:13:14;;;;;;;9.13;6.25;;;;;;;11.98;54.11;102529.38;5024787;28;20476;-89
2023/04/19 07:15:39;;;;;;;11.30;6.55;;;;;;;12.00;54.06;102531.13;5011705;28;20077;-89
2023/04/19 07:18:05;;;;;;;8.50;6.63;;;;;;;12.08;53.80;102517.72;5008767;28;20025;-89
2023/04/19 07:20:30;;;;;;;7.50;5.80;;;;;;;12.34;52.54;102526.94;5027257;28;20029;-89
2023/04/19 07:22:59;;;;;;;8.00;6.32;;;;;;;12.33;51.79;102509.28;5010714;28;20021;-90
2023/04/19 07:25:25;;;;;;;8.70;5.88;;;;;;;12.55;51.96;102507.91;5027372;28;20492;-90
2023/04/19 07:27:54;;;;;;;8.68;6.00;;;;;;;12.74;53.83;102511.91;5030713;28;20451;-90
2023/04/19 07:30:19;;;;;;;17.83;6.72;;;;;;;12.91;51.76;102524.78;5011652;28;20050;-89
2023/04/19 07:32:45;;;;;;;8.23;5.65;;;;;;;12.95;53.13;102507.88;5016743;28;20086;-90
2023/04/19 07:35:11;;;;;;;9.35;6.47;;;;;;;13.27;51.32;102530.16;5027627;28;20607;-90
2023/04/19 07:37:36;;;;;;;9.93;6.25;;;;;;;13.28;50.92;102511.53;5012075;28;20037;-90
2023/04/19 07:40:02;;;;;;;8.52;5.45;;;;;;;13.41;50.76;102513.91;5027994;28;20388;-90
2023/04/19 07:42:28;;;;;;;7.95;5.60;;;;;;;13.63;49.71;102525.72;5023551;28;20029;-90
2023/04/19 07:44:54;;;;;;;8.30;6.10;;;;;;;13.87;48.50;102515.34;5012778;28;20029;-90
2023/04/19 07:47:19;;;;;;;9.50;6.47;;;;;;;14.10;48.57;102520.03;5021658;28;20044;-91
2023/04/19 07:49:44;;;;;;;9.20;6.03;;;;;;;14.46;47.75;102518.13;5025409;28;20028;-91
2023/04/19 07:52:10;;;;;;;9.30;6.18;;;;;;;14.70;48.12;102495.25;5026788;28;20122;-91
2023/04/19 07:54:38;;;;;;;8.20;6.93;;;;;;;15.05;45.61;102518.09;5004792;28;20076;-91
2023/04/19 07:57:03;;;;;;;8.48;5.72;;;;;;;15.13;46.18;102500.06;5030837;28;20032;-91
2023/04/19 07:59:29;;;;;;;9.15;6.50;;;;;;;15.30;45.66;102508.38;5007671;28;20014;-92
2023/04/19 08:01:54;;;;;;;7.65;6.15;;;;;;;15.66;44.99;102521.41;5009989;28;20021;-91
2023/04/19 08:04:21;;;;;;;7.53;6.20;;;;;;;15.92;45.31;102515.16;5024428;28;20060;-92
2023/04/19 08:06:47;;;;;;;9.05;6.18;;;;;;;16.22;43.78;102513.16;5034066;28;20021;-92
2023/04/19 08:09:12;;;;;;;6.75;5.57;;;;;;;16.35;42.03;102516.25;5002237;28;20100;-92
2023/04/19 08:11:38;;;;;;;10.05;6.68;;;;;;;16.49;41.83;102511.25;5017621;28;20504;-92
2023/04/19 08:14:03;;;;;;;7.70;5.95;;;;;;;16.85;42.01;102509.94;5023771;28;20061;-92
2023/04/19 08:16:28;;;;;;;10.82;5.88;;;;;;;17.22;41.80;102511.97;5027229;28;20049;-91
2023/04/19 08:18:54;;;;;;;8.77;5.43;;;;;;;17.45;40.21;102511.03;5029408;28;20025;-92
2023/04/19 08:21:20;;;;;;;7.15;5.57;;;;;;;17.56;38.84;102509.63;5013939;28;20051;-92
2023/04/19 08:23:45;;;;;;;7.85;6.18;;;;;;;17.67;39.14;102508.28;5008924;28;20037;-92
2023/04/19 08:26:11;;;;;;;10.45;5.05;;;;;;;17.85;38.69;102515.53;5028603;28;20033;-91
2023/04/19 08:28:36;;;;;;;8.30;5.40;;;;;;;17.94;36.93;102507.09;5022603;28;20034;-92
2023/04/19 08:31:06;;;;;;;7.95;5.60;;;;;;;18.24;37.56;102512.03;5023220;28;20029;-91
2023/04/19 08:33:31;;;;;;;9.52;5.47;;;;;;;18.26;36.28;102507.47;5010014;28;20037;-91
2023/04/19 08:35:56;;;;;;;12.15;5.55;;;;;;;18.49;36.29;102496.53;5009749;28;20404;-91
2023/04/19 08:38:22;;;;;;;7.72;5.38;;;;;;;18.59;35.34;102488.94;5025077;28;20370;-91
2023/04/19 08:40:51;;;;;;;7.82;5.57;;;;;;;18.77;35.05;102501.50;5019142;28;20030;-92
2023/04/19 08:43:17;;;;;;;16.38;6.25;;;;;;;18.85;35.29;102499.31;5014480;28;20104;-91
2023/04/19 08:45:46;;;;;;;7.38;5.50;;;;;;;19.13;34.56;102489.06;5022729;28;20025;-91
2023/04/19 08:48:11;;;;;;;7.53;5.65;;;;;;;19.44;34.07;102486.53;5022744;28;20576;-92
2023/04/19 08:50:40;;;;;;;8.88;6.03;;;;;;;19.66;33.94;102498.91;5019850;28;20108;-91
2023/04/19 08:53:07;;;;;;;6.70;5.00;;;;;;;19.88;33.77;102494.13;5023099;28;20029;-91
2023/04/19 08:55:33;;;;;;;6.22;5.20;;;;;;;19.97;32.71;102499.03;5004174;28;20056;-91
2023/04/19 08:58:00;;;;;;;5.72;5.13;;;;;;;20.06;30.68;102497.66;5018212;28;20124;-91
2023/04/19 09:00:25;;;;;;;6.22;5.50;;;;;;;20.18;32.17;102491.63;5006032;28;20025;-90
2023/04/19 09:02:52;;;;;;;6.35;4.68;;;;;;;20.51;32.17;102501.50;5014617;28;20028;-92
2023/04/19 09:05:18;;;;;;;6.50;5.30;;;;;;;20.80;30.51;102505.25;5029155;28;20017;-91
2023/04/19 09:07:45;;;;;;;6.55;4.78;;;;;;;21.14;30.61;102488.91;5023988;28;20401;-92
2023/04/19 09:10:14;;;;;;;5.68;4.97;;;;;;;21.06;28.57;102488.47;5031105;28;20040;-91
2023/04/19 09:12:41;;;;;;;6.05;4.47;;;;;;;21.44;29.68;102482.69;5015951;28;20032;-90
2023/04/19 09:15:08;;;;;;;9.25;4.40;;;;;;;21.76;29.20;102486.13;5027809;28;20476;-91
2023/04/19 09:17:37;;;;;;;6.72;4.63;;;;;;;21.84;27.64;102478.44;5023121;28;20506;-91
2023/04/19 09:20:03;;;;;;;6.80;4.32;;;;;;;21.88;26.90;102488.06;5023250;28;20495;-91
2023/04/19 09:22:30;;;;;;;5.22;4.22;;;;;;;21.75;27.78;102486.22;5020385;28;20021;-91
2023/04/19 09:24:55;;;;;;;7.32;3.72;;;;;;;22.26;28.66;102479.44;5025226;28;20075;-92
2023/04/19 09:27:29;;;;;;;5.82;4.00;;;;;;;22.48;28.65;102483.47;5021293;28;20025;-91
2023/04/19 09:29:56;;;;;;;4.72;3.65;;;;;;;22.41;26.13;102489.25;5017308;28;20678;-91
2023/04/19 09:32:23;;;;;;;7.22;4.03;;;;;;;21.99;26.51;102481.13;5026294;28;20033;-91
2023/04/19 09:34:56;;;;;;;8.80;3.85;;;;;;;22.18;26.01;102497.06;5025638;28;20389;-91
2023/04/19 09:37:23;;;;;;;4.55;3.53;;;;;;;22.03;26.29;102497.03;5025090;28;20128;-91
2023/04/19 09:39:48;;;;;;;6.43;3.35;;;;;;;22.08;26.66;102496.72;5017730;28;20576;-91
2023/04/19 09:42:14;;;;;;;5.05;3.63;;;;;;;22.40;26.73;102484.81;5013624;28;20017;-91
2023/04/19 09:44:39;;;;;;;4.35;3.58;;;;;;;22.39;25.37;102487.63;5019889;28;20021;-92
2023/04/19 09:47:23;;;;;;;4.80;3.28;;;;;;;22.79;27.78;102485.03;5023982;28;20421;-92
2023/04/19 09:50:03;;;;;;;4.32;3.70;;;;;;;22.78;27.54;102481.47;4999511;28;20038;-92
2023/04/19 09:52:29;;;;;;;12.90;4.40;;;;;;;22.55;26.12;102458.69;5006373;28;20021;-91
2023/04/19 09:54:56;;;;;;;4.60;3.40;;;;;;;22.48;25.06;102470.00;5007099;28;20033;-89
2023/04/19 09:57:21;;;;;;;5.47;3.47;;;;;;;22.12;25.14;102477.63;5021004;28;20489;-91
2023/04/19 09:59:46;;;;;;;4.25;3.20;;;;;;;21.79;24.54;102475.16;5031982;28;20056;-91
2023/04/19 10:02:13;;;;;;;4.15;3.28;;;;;;;21.98;25.28;102485.66;5018695;28;20492;-92
2023/04/19 10:04:40;;;;;;;4.32;3.40;;;;;;;22.04;27.13;102482.59;5007576;28;20033;-92
2023/04/19 10:07:06;;;;;;;5.20;3.30;;;;;;;22.11;26.47;102475.00;5032253;28;20115;-92
2023/04/19 10:09:34;;;;;;;7.35;3.38;;;;;;;22.25;27.67;102472.34;5014203;28;20539;-92
2023/04/19 10:12:01;;;;;;;5.30;3.80;;;;;;;22.31;27.34;102471.06;5029259;28;20029;-92
2023/04/19 10:14:32;;;;;;;4.05;3.60;;;;;;;22.27;26.27;102462.31;5002883;28;20567;-92
2023/04/19 10:16:58;;;;;;;4.55;2.83;;;;;;;22.02;25.46;102470.19;5008250;28;20045;-92
2023/04/19 10:19:24;;;;;;;5.35;2.85;;;;;;;21.62;25.67;102472.63;5023605;28;20415;-92
2023/04/19 10:21:50;;;;;;;4.57;2.97;;;;;;;21.47;24.76;102481.63;5020384;28;20074;-91
2023/04/19 10:24:20;;;;;;;5.38;2.60;;;;;;;20.86;23.71;102476.19;5027662;28;20021;-91
2023/04/19 10:27:04;;;;;;;6.47;2.78;;;;;;;20.75;25.27;102486.69;5015956;28;20204;-93
2023/04/19 10:30:02;;;;;;;2.55;2.35;;;;;;;20.73;26.53;102483.22;5013540;28;20030;-91
2023/04/19 10:32:38;;;;;;;4.95;2.67;;;;;;;20.75;26.27;102470.56;5032397;28;20671;-93
2023/04/19 10:35:08;;;;;;;5.95;2.65;;;;;;;20.46;26.73;102465.91;5023856;28;20113;-92
2023/04/19 10:37:33;;;;;;;6.68;2.85;;;;;;;20.41;27.52;102451.88;5032240;28;20037;-93
2023/04/19 10:39:59;;;;;;;2.45;2.20;;;;;;;20.49;25.12;102458.59;5029539;28;20033;-92
2023/04/19 10:43:03;;;;;;;2.65;2.08;;;;;;;20.73;26.63;102466.22;5030091;28;20033;-92
2023/04/19 10:45:33;;;;;;;3.88;2.25;;;;;;;20.57;24.50;102450.97;5007794;28;20039;-92
2023/04/19 10:47:58;;;;;;;7.30;1.98;;;;;;;20.89;27.12;102453.66;5033628;28;20128;-93
2023/04/19 10:50:24;;;;;;;2.75;2.00;;;;;;;21.10;24.16;102454.19;5017102;28;20552;-92
2023/04/19 10:52:49;;;;;;;4.93;1.95;;;;;;;20.87;24.77;102451.03;5026749;28;20030;-92
2023/04/19 10:55:18;;;;;;;3.75;2.10;;;;;;;20.87;24.88;102458.22;5032717;28;20034;-91
2023/04/19 10:58:13;;;;;;;2.60;1.70;;;;;;;21.18;26.38;102457.31;5031463;28;20022;-95
2023/04/19 11:00:39;;;;;;;3.42;2.10;;;;;;;21.31;26.30;102444.00;4996309;28;20830;-92
2023/04/19 11:03:42;;;;;;;2.45;2.05;;;;;;;21.36;24.60;102456.25;5036618;28;20021;-92
2023/04/19 11:06:16;;;;;;;7.47;2.20;;;;;;;21.01;23.97;102443.97;5028826;28;20045;-93
2023/04/19 11:08:43;;;;;;;3.65;2.00;;;;;;;20.70;23.17;102445.75;5025097;28;20508;-94
2023/04/19 11:11:09;;;;;;;2.70;1.80;;;;;;;20.90;25.79;102447.31;5015469;28;20109;-92
2023/04/19 11:13:36;;;;;;;3.30;2.30;;;;;;;21.14;25.93;102450.38;4995219;28;20129;-94